sensor_id;sensor_type;location;lat;lon;timestamp;P1;durP1;ratioP1;P2;durP2;ratioP2
13793;SDS011;31160;49.500;7.772;2022-10-14T00:00:44;18.33;;;12.67;;
13793;SDS011;31160;49.500;7.772;2022-10-14T00:03:10;14.43;;;12.30;;
13793;SDS011;31160;49.500;7.772;2022-10-14T00:05:40;17.97;;;12.40;;
13793;SDS011;31160;49.500;7.772;2022-10-14T00:08:08;18.43;;;12.53;;
13793;SDS011;31160;49.500;7.772;2022-10-14T00:10:36;15.67;;;12.33;;
13793;SDS011;31160;49.500;7.772;2022-10-14T00:13:04;16.40;;;12.27;;
13793;SDS011;31160;49.500;7.772;2022-10-14T00:15:31;14.50;;;11.93;;
13793;SDS011;31160;49.500;7.772;2022-10-14T00:18:03;19.43;;;12.20;;
13793;SDS011;31160;49.500;7.772;2022-10-14T00:20:30;14.70;;;11.97;;
13793;SDS011;31160;49.500;7.772;2022-10-14T00:22:57;14.80;;;11.40;;
13793;SDS011;31160;49.500;7.772;2022-10-14T00:25:24;16.50;;;12.27;;
13793;SDS011;31160;49.500;7.772;2022-10-14T00:27:51;16.87;;;12.33;;
13793;SDS011;31160;49.500;7.772;2022-10-14T00:30:18;22.57;;;12.10;;
13793;SDS011;31160;49.500;7.772;2022-10-14T00:32:45;18.30;;;11.33;;
13793;SDS011;31160;49.500;7.772;2022-10-14T00:35:12;18.33;;;13.23;;
13793;SDS011;31160;49.500;7.772;2022-10-14T00:37:38;16.53;;;13.53;;
13793;SDS011;31160;49.500;7.772;2022-10-14T00:40:05;14.07;;;11.83;;
13793;SDS011;31160;49.500;7.772;2022-10-14T00:42:32;15.60;;;12.07;;
13793;SDS011;31160;49.500;7.772;2022-10-14T00:45:11;15.33;;;11.73;;
13793;SDS011;31160;49.500;7.772;2022-10-14T00:47:41;15.50;;;12.33;;
13793;SDS011;31160;49.500;7.772;2022-10-14T00:50:09;16.03;;;12.63;;
13793;SDS011;31160;49.500;7.772;2022-10-14T00:52:38;15.07;;;11.97;;
13793;SDS011;31160;49.500;7.772;2022-10-14T00:55:16;15.57;;;12.70;;
13793;SDS011;31160;49.500;7.772;2022-10-14T00:57:43;14.90;;;12.17;;
13793;SDS011;31160;49.500;7.772;2022-10-14T01:00:12;14.03;;;11.53;;
13793;SDS011;31160;49.500;7.772;2022-10-14T01:02:41;18.07;;;11.90;;
13793;SDS011;31160;49.500;7.772;2022-10-14T01:05:08;18.00;;;11.40;;
13793;SDS011;31160;49.500;7.772;2022-10-14T01:10:31;19.03;;;11.47;;
13793;SDS011;31160;49.500;7.772;2022-10-14T01:18:43;14.70;;;11.60;;
13793;SDS011;31160;49.500;7.772;2022-10-14T01:21:36;17.60;;;11.57;;
13793;SDS011;31160;49.500;7.772;2022-10-14T01:27:15;19.50;;;13.63;;
13793;SDS011;31160;49.500;7.772;2022-10-14T01:32:20;15.83;;;12.37;;
13793;SDS011;31160;49.500;7.772;2022-10-14T01:35:05;17.60;;;12.10;;
13793;SDS011;31160;49.500;7.772;2022-10-14T01:37:44;16.97;;;11.93;;
13793;SDS011;31160;49.500;7.772;2022-10-14T01:40:27;23.33;;;12.80;;
13793;SDS011;31160;49.500;7.772;2022-10-14T01:43:01;18.07;;;12.50;;
13793;SDS011;31160;49.500;7.772;2022-10-14T01:45:31;16.87;;;13.63;;
13793;SDS011;31160;49.500;7.772;2022-10-14T01:48:01;18.53;;;12.83;;
13793;SDS011;31160;49.500;7.772;2022-10-14T01:50:29;17.57;;;13.23;;
13793;SDS011;31160;49.500;7.772;2022-10-14T01:53:03;20.67;;;13.03;;
13793;SDS011;31160;49.500;7.772;2022-10-14T01:55:38;19.87;;;13.37;;
13793;SDS011;31160;49.500;7.772;2022-10-14T01:58:09;16.47;;;12.10;;
13793;SDS011;31160;49.500;7.772;2022-10-14T02:00:38;17.70;;;14.37;;
13793;SDS011;31160;49.500;7.772;2022-10-14T02:03:05;17.00;;;12.73;;
13793;SDS011;31160;49.500;7.772;2022-10-14T02:06:20;20.93;;;13.00;;
13793;SDS011;31160;49.500;7.772;2022-10-14T02:16:36;17.70;;;13.27;;
13793;SDS011;31160;49.500;7.772;2022-10-14T02:22:01;17.57;;;13.87;;
13793;SDS011;31160;49.500;7.772;2022-10-14T02:24:39;21.67;;;14.17;;
13793;SDS011;31160;49.500;7.772;2022-10-14T02:27:12;20.57;;;13.50;;
13793;SDS011;31160;49.500;7.772;2022-10-14T02:29:41;21.07;;;14.43;;
13793;SDS011;31160;49.500;7.772;2022-10-14T02:32:12;23.03;;;13.13;;
13793;SDS011;31160;49.500;7.772;2022-10-14T02:34:42;16.10;;;13.17;;
13793;SDS011;31160;49.500;7.772;2022-10-14T02:37:12;22.43;;;14.17;;
13793;SDS011;31160;49.500;7.772;2022-10-14T02:39:42;21.73;;;13.97;;
13793;SDS011;31160;49.500;7.772;2022-10-14T02:42:13;18.00;;;13.77;;
13793;SDS011;31160;49.500;7.772;2022-10-14T02:44:56;18.80;;;14.07;;
13793;SDS011;31160;49.500;7.772;2022-10-14T02:47:25;18.57;;;14.10;;
13793;SDS011;31160;49.500;7.772;2022-10-14T02:49:52;22.80;;;14.37;;
13793;SDS011;31160;49.500;7.772;2022-10-14T02:52:19;17.70;;;14.00;;
13793;SDS011;31160;49.500;7.772;2022-10-14T02:54:46;18.13;;;13.07;;
13793;SDS011;31160;49.500;7.772;2022-10-14T02:57:13;18.47;;;13.73;;
13793;SDS011;31160;49.500;7.772;2022-10-14T02:59:40;19.77;;;14.13;;
13793;SDS011;31160;49.500;7.772;2022-10-14T03:02:06;18.90;;;13.13;;
13793;SDS011;31160;49.500;7.772;2022-10-14T03:04:36;24.93;;;14.10;;
13793;SDS011;31160;49.500;7.772;2022-10-14T03:07:03;20.23;;;14.13;;
13793;SDS011;31160;49.500;7.772;2022-10-14T03:09:34;20.47;;;14.27;;
13793;SDS011;31160;49.500;7.772;2022-10-14T03:12:01;21.13;;;14.17;;
13793;SDS011;31160;49.500;7.772;2022-10-14T03:14:28;22.40;;;13.80;;
13793;SDS011;31160;49.500;7.772;2022-10-14T03:16:55;16.43;;;13.03;;
13793;SDS011;31160;49.500;7.772;2022-10-14T03:19:23;16.77;;;13.50;;
13793;SDS011;31160;49.500;7.772;2022-10-14T03:21:53;18.43;;;13.73;;
13793;SDS011;31160;49.500;7.772;2022-10-14T03:24:20;17.27;;;13.27;;
13793;SDS011;31160;49.500;7.772;2022-10-14T03:26:59;19.63;;;13.87;;
13793;SDS011;31160;49.500;7.772;2022-10-14T03:29:26;19.80;;;13.83;;
13793;SDS011;31160;49.500;7.772;2022-10-14T03:32:10;18.13;;;13.10;;
13793;SDS011;31160;49.500;7.772;2022-10-14T03:35:03;21.03;;;14.43;;
13793;SDS011;31160;49.500;7.772;2022-10-14T03:37:30;20.60;;;13.77;;
13793;SDS011;31160;49.500;7.772;2022-10-14T03:39:57;23.77;;;14.00;;
13793;SDS011;31160;49.500;7.772;2022-10-14T03:42:24;19.90;;;14.20;;
13793;SDS011;31160;49.500;7.772;2022-10-14T03:44:51;22.77;;;14.57;;
13793;SDS011;31160;49.500;7.772;2022-10-14T03:47:26;20.70;;;13.97;;
13793;SDS011;31160;49.500;7.772;2022-10-14T03:49:52;19.40;;;13.47;;
13793;SDS011;31160;49.500;7.772;2022-10-14T03:52:27;21.30;;;13.57;;
13793;SDS011;31160;49.500;7.772;2022-10-14T03:55:05;24.80;;;14.37;;
13793;SDS011;31160;49.500;7.772;2022-10-14T03:57:33;23.03;;;14.23;;
13793;SDS011;31160;49.500;7.772;2022-10-14T04:00:01;21.10;;;13.33;;
13793;SDS011;31160;49.500;7.772;2022-10-14T04:02:38;19.80;;;14.00;;
13793;SDS011;31160;49.500;7.772;2022-10-14T04:05:10;16.77;;;13.03;;
13793;SDS011;31160;49.500;7.772;2022-10-14T04:07:38;19.23;;;13.97;;
13793;SDS011;31160;49.500;7.772;2022-10-14T04:10:05;23.17;;;13.90;;
13793;SDS011;31160;49.500;7.772;2022-10-14T04:12:33;19.90;;;13.13;;
13793;SDS011;31160;49.500;7.772;2022-10-14T04:15:07;19.87;;;14.03;;
13793;SDS011;31160;49.500;7.772;2022-10-14T04:17:50;18.90;;;13.13;;
13793;SDS011;31160;49.500;7.772;2022-10-14T04:20:17;20.60;;;13.60;;
13793;SDS011;31160;49.500;7.772;2022-10-14T04:22:46;27.63;;;16.37;;
13793;SDS011;31160;49.500;7.772;2022-10-14T04:25:15;32.73;;;14.43;;
13793;SDS011;31160;49.500;7.772;2022-10-14T04:27:47;20.40;;;13.93;;
13793;SDS011;31160;49.500;7.772;2022-10-14T04:30:14;22.40;;;14.07;;
13793;SDS011;31160;49.500;7.772;2022-10-14T04:32:48;20.57;;;14.17;;
13793;SDS011;31160;49.500;7.772;2022-10-14T04:35:15;21.00;;;13.67;;
13793;SDS011;31160;49.500;7.772;2022-10-14T04:37:46;20.77;;;13.73;;
13793;SDS011;31160;49.500;7.772;2022-10-14T04:40:19;21.10;;;13.67;;
13793;SDS011;31160;49.500;7.772;2022-10-14T04:42:55;20.00;;;13.03;;
13793;SDS011;31160;49.500;7.772;2022-10-14T04:45:30;19.60;;;14.17;;
13793;SDS011;31160;49.500;7.772;2022-10-14T04:48:00;20.90;;;14.00;;
13793;SDS011;31160;49.500;7.772;2022-10-14T04:50:27;24.70;;;13.43;;
13793;SDS011;31160;49.500;7.772;2022-10-14T04:53:12;22.30;;;16.52;;
13793;SDS011;31160;49.500;7.772;2022-10-14T04:55:55;21.67;;;14.20;;
13793;SDS011;31160;49.500;7.772;2022-10-14T04:58:22;23.60;;;14.97;;
13793;SDS011;31160;49.500;7.772;2022-10-14T05:00:49;20.27;;;13.43;;
13793;SDS011;31160;49.500;7.772;2022-10-14T05:03:26;20.37;;;14.10;;
13793;SDS011;31160;49.500;7.772;2022-10-14T05:05:52;23.03;;;13.60;;
13793;SDS011;31160;49.500;7.772;2022-10-14T05:08:19;18.00;;;13.37;;
13793;SDS011;31160;49.500;7.772;2022-10-14T05:10:50;23.13;;;14.13;;
13793;SDS011;31160;49.500;7.772;2022-10-14T05:13:31;25.97;;;13.43;;
13793;SDS011;31160;49.500;7.772;2022-10-14T05:16:02;17.50;;;12.77;;
13793;SDS011;31160;49.500;7.772;2022-10-14T05:18:30;17.77;;;13.60;;
13793;SDS011;31160;49.500;7.772;2022-10-14T05:21:01;17.17;;;12.40;;
13793;SDS011;31160;49.500;7.772;2022-10-14T05:23:43;19.30;;;14.20;;
13793;SDS011;31160;49.500;7.772;2022-10-14T05:26:10;19.67;;;13.63;;
13793;SDS011;31160;49.500;7.772;2022-10-14T05:28:39;20.47;;;12.77;;
13793;SDS011;31160;49.500;7.772;2022-10-14T05:31:07;23.57;;;14.03;;
13793;SDS011;31160;49.500;7.772;2022-10-14T05:33:41;18.17;;;12.87;;
13793;SDS011;31160;49.500;7.772;2022-10-14T05:36:08;20.37;;;13.77;;
13793;SDS011;31160;49.500;7.772;2022-10-14T05:38:35;15.30;;;11.57;;
13793;SDS011;31160;49.500;7.772;2022-10-14T05:41:02;18.00;;;13.00;;
13793;SDS011;31160;49.500;7.772;2022-10-14T05:43:29;20.60;;;12.40;;
13793;SDS011;31160;49.500;7.772;2022-10-14T05:45:59;17.07;;;12.27;;
13793;SDS011;31160;49.500;7.772;2022-10-14T05:48:31;21.43;;;12.07;;
13793;SDS011;31160;49.500;7.772;2022-10-14T05:50:59;17.80;;;12.97;;
13793;SDS011;31160;49.500;7.772;2022-10-14T05:53:29;22.57;;;13.67;;
13793;SDS011;31160;49.500;7.772;2022-10-14T05:56:04;17.63;;;12.53;;
13793;SDS011;31160;49.500;7.772;2022-10-14T05:58:32;18.40;;;12.33;;
13793;SDS011;31160;49.500;7.772;2022-10-14T06:01:00;16.37;;;11.37;;
13793;SDS011;31160;49.500;7.772;2022-10-14T06:03:31;19.00;;;11.93;;
13793;SDS011;31160;49.500;7.772;2022-10-14T06:05:58;26.93;;;19.63;;
13793;SDS011;31160;49.500;7.772;2022-10-14T06:08:28;22.97;;;16.40;;
13793;SDS011;31160;49.500;7.772;2022-10-14T06:10:54;22.83;;;16.47;;
13793;SDS011;31160;49.500;7.772;2022-10-14T06:13:21;21.20;;;14.57;;
13793;SDS011;31160;49.500;7.772;2022-10-14T06:15:49;24.73;;;13.77;;
13793;SDS011;31160;49.500;7.772;2022-10-14T06:18:16;14.63;;;11.43;;
13793;SDS011;31160;49.500;7.772;2022-10-14T06:20:43;16.77;;;11.67;;
13793;SDS011;31160;49.500;7.772;2022-10-14T06:23:16;18.27;;;11.07;;
13793;SDS011;31160;49.500;7.772;2022-10-14T06:25:42;17.03;;;12.47;;
13793;SDS011;31160;49.500;7.772;2022-10-14T06:28:09;17.57;;;11.37;;
13793;SDS011;31160;49.500;7.772;2022-10-14T06:30:36;18.20;;;11.67;;
13793;SDS011;31160;49.500;7.772;2022-10-14T06:33:02;21.33;;;12.00;;
13793;SDS011;31160;49.500;7.772;2022-10-14T06:35:29;15.47;;;11.00;;
13793;SDS011;31160;49.500;7.772;2022-10-14T06:37:56;17.13;;;11.17;;
13793;SDS011;31160;49.500;7.772;2022-10-14T06:40:23;16.73;;;11.47;;
13793;SDS011;31160;49.500;7.772;2022-10-14T06:42:49;16.17;;;11.00;;
13793;SDS011;31160;49.500;7.772;2022-10-14T06:45:17;15.77;;;11.60;;
13793;SDS011;31160;49.500;7.772;2022-10-14T06:47:44;19.30;;;11.10;;
13793;SDS011;31160;49.500;7.772;2022-10-14T06:50:10;17.67;;;10.43;;
13793;SDS011;31160;49.500;7.772;2022-10-14T06:52:37;16.37;;;9.73;;
13793;SDS011;31160;49.500;7.772;2022-10-14T06:55:04;17.50;;;10.37;;
13793;SDS011;31160;49.500;7.772;2022-10-14T06:57:31;17.13;;;9.87;;
13793;SDS011;31160;49.500;7.772;2022-10-14T06:59:58;13.60;;;9.63;;
13793;SDS011;31160;49.500;7.772;2022-10-14T07:02:24;14.07;;;9.77;;
13793;SDS011;31160;49.500;7.772;2022-10-14T07:04:51;13.63;;;8.97;;
13793;SDS011;31160;49.500;7.772;2022-10-14T07:07:18;35.20;;;25.63;;
13793;SDS011;31160;49.500;7.772;2022-10-14T07:09:44;12.90;;;9.90;;
13793;SDS011;31160;49.500;7.772;2022-10-14T07:12:11;12.70;;;9.03;;
13793;SDS011;31160;49.500;7.772;2022-10-14T07:14:38;14.67;;;8.90;;
13793;SDS011;31160;49.500;7.772;2022-10-14T07:17:05;15.50;;;9.20;;
13793;SDS011;31160;49.500;7.772;2022-10-14T07:19:33;16.87;;;9.80;;
13793;SDS011;31160;49.500;7.772;2022-10-14T07:22:00;16.97;;;9.37;;
13793;SDS011;31160;49.500;7.772;2022-10-14T07:24:27;15.50;;;8.73;;
13793;SDS011;31160;49.500;7.772;2022-10-14T07:26:53;13.77;;;9.13;;
13793;SDS011;31160;49.500;7.772;2022-10-14T07:29:20;16.87;;;9.70;;
13793;SDS011;31160;49.500;7.772;2022-10-14T07:31:47;22.17;;;10.97;;
13793;SDS011;31160;49.500;7.772;2022-10-14T07:34:13;17.97;;;10.23;;
13793;SDS011;31160;49.500;7.772;2022-10-14T07:36:40;19.40;;;10.03;;
13793;SDS011;31160;49.500;7.772;2022-10-14T07:39:07;15.27;;;9.73;;
13793;SDS011;31160;49.500;7.772;2022-10-14T07:41:34;15.77;;;9.90;;
13793;SDS011;31160;49.500;7.772;2022-10-14T07:44:01;14.23;;;8.37;;
13793;SDS011;31160;49.500;7.772;2022-10-14T07:46:31;9.23;;;6.73;;
13793;SDS011;31160;49.500;7.772;2022-10-14T07:49:17;8.83;;;6.40;;
13793;SDS011;31160;49.500;7.772;2022-10-14T07:51:45;11.67;;;6.43;;
13793;SDS011;31160;49.500;7.772;2022-10-14T07:54:13;9.43;;;6.57;;
13793;SDS011;31160;49.500;7.772;2022-10-14T07:56:45;8.20;;;6.27;;
13793;SDS011;31160;49.500;7.772;2022-10-14T07:59:14;7.70;;;5.57;;
13793;SDS011;31160;49.500;7.772;2022-10-14T08:01:49;10.47;;;5.97;;
13793;SDS011;31160;49.500;7.772;2022-10-14T08:04:17;9.30;;;5.90;;
13793;SDS011;31160;49.500;7.772;2022-10-14T08:06:46;9.83;;;5.80;;
13793;SDS011;31160;49.500;7.772;2022-10-14T08:09:13;9.20;;;5.10;;
13793;SDS011;31160;49.500;7.772;2022-10-14T08:11:40;9.23;;;5.30;;
13793;SDS011;31160;49.500;7.772;2022-10-14T08:14:08;8.03;;;5.03;;
13793;SDS011;31160;49.500;7.772;2022-10-14T08:16:35;7.17;;;4.93;;
13793;SDS011;31160;49.500;7.772;2022-10-14T08:19:06;12.83;;;4.80;;
13793;SDS011;31160;49.500;7.772;2022-10-14T08:21:40;7.73;;;5.03;;
13793;SDS011;31160;49.500;7.772;2022-10-14T08:24:08;7.77;;;5.00;;
13793;SDS011;31160;49.500;7.772;2022-10-14T08:26:39;5.73;;;4.27;;
13793;SDS011;31160;49.500;7.772;2022-10-14T08:29:14;9.87;;;5.23;;
13793;SDS011;31160;49.500;7.772;2022-10-14T08:31:40;8.07;;;5.10;;
13793;SDS011;31160;49.500;7.772;2022-10-14T08:34:07;7.07;;;5.47;;
13793;SDS011;31160;49.500;7.772;2022-10-14T08:36:35;8.00;;;5.30;;
13793;SDS011;31160;49.500;7.772;2022-10-14T08:39:02;7.27;;;5.53;;
13793;SDS011;31160;49.500;7.772;2022-10-14T08:44:14;8.97;;;5.63;;
13793;SDS011;31160;49.500;7.772;2022-10-14T08:46:46;12.87;;;6.00;;
13793;SDS011;31160;49.500;7.772;2022-10-14T08:52:17;11.97;;;8.27;;
13793;SDS011;31160;49.500;7.772;2022-10-14T08:55:24;10.83;;;7.10;;
13793;SDS011;31160;49.500;7.772;2022-10-14T08:58:36;10.90;;;7.10;;
13793;SDS011;31160;49.500;7.772;2022-10-14T09:00:57;12.60;;;7.17;;
13793;SDS011;31160;49.500;7.772;2022-10-14T09:03:39;9.00;;;4.50;;
13793;SDS011;31160;49.500;7.772;2022-10-14T09:06:11;7.00;;;4.37;;
13793;SDS011;31160;49.500;7.772;2022-10-14T09:08:49;5.93;;;3.90;;
13793;SDS011;31160;49.500;7.772;2022-10-14T09:11:21;7.40;;;3.83;;
13793;SDS011;31160;49.500;7.772;2022-10-14T09:13:50;6.50;;;4.17;;
13793;SDS011;31160;49.500;7.772;2022-10-14T09:16:22;6.20;;;3.20;;
13793;SDS011;31160;49.500;7.772;2022-10-14T09:18:52;6.87;;;3.63;;
13793;SDS011;31160;49.500;7.772;2022-10-14T09:24:23;4.93;;;3.07;;
13793;SDS011;31160;49.500;7.772;2022-10-14T09:26:53;6.53;;;3.10;;
13793;SDS011;31160;49.500;7.772;2022-10-14T09:32:11;5.97;;;3.33;;
13793;SDS011;31160;49.500;7.772;2022-10-14T09:34:44;5.90;;;3.73;;
13793;SDS011;31160;49.500;7.772;2022-10-14T09:37:20;6.50;;;3.50;;
13793;SDS011;31160;49.500;7.772;2022-10-14T09:39:48;5.67;;;3.33;;
13793;SDS011;31160;49.500;7.772;2022-10-14T09:42:21;8.10;;;3.50;;
13793;SDS011;31160;49.500;7.772;2022-10-14T09:45:09;4.67;;;3.13;;
13793;SDS011;31160;49.500;7.772;2022-10-14T09:47:51;7.77;;;3.47;;
13793;SDS011;31160;49.500;7.772;2022-10-14T09:50:50;7.33;;;3.77;;
13793;SDS011;31160;49.500;7.772;2022-10-14T09:53:24;7.83;;;3.27;;
13793;SDS011;31160;49.500;7.772;2022-10-14T09:55:53;3.90;;;3.00;;
13793;SDS011;31160;49.500;7.772;2022-10-14T09:58:25;4.13;;;3.23;;
13793;SDS011;31160;49.500;7.772;2022-10-14T10:00:59;6.47;;;3.30;;
13793;SDS011;31160;49.500;7.772;2022-10-14T10:03:28;4.40;;;2.77;;
13793;SDS011;31160;49.500;7.772;2022-10-14T10:06:02;5.80;;;3.33;;
13793;SDS011;31160;49.500;7.772;2022-10-14T10:08:37;5.03;;;2.90;;
13793;SDS011;31160;49.500;7.772;2022-10-14T10:11:31;10.13;;;4.80;;
13793;SDS011;31160;49.500;7.772;2022-10-14T10:27:36;5.27;;;2.60;;
13793;SDS011;31160;49.500;7.772;2022-10-14T10:30:26;7.47;;;3.53;;
13793;SDS011;31160;49.500;7.772;2022-10-14T10:33:19;4.33;;;2.40;;
13793;SDS011;31160;49.500;7.772;2022-10-14T10:35:57;4.50;;;2.17;;
13793;SDS011;31160;49.500;7.772;2022-10-14T10:38:31;5.87;;;3.30;;
13793;SDS011;31160;49.500;7.772;2022-10-14T10:47:10;4.53;;;3.47;;
13793;SDS011;31160;49.500;7.772;2022-10-14T10:49:55;3.53;;;2.10;;
13793;SDS011;31160;49.500;7.772;2022-10-14T10:55:28;2.97;;;2.20;;
13793;SDS011;31160;49.500;7.772;2022-10-14T10:58:08;2.23;;;1.83;;
13793;SDS011;31160;49.500;7.772;2022-10-14T11:00:55;4.27;;;2.20;;
13793;SDS011;31160;49.500;7.772;2022-10-14T11:03:31;3.30;;;2.00;;
13793;SDS011;31160;49.500;7.772;2022-10-14T11:06:26;3.47;;;2.10;;
13793;SDS011;31160;49.500;7.772;2022-10-14T11:09:32;4.90;;;3.37;;
13793;SDS011;31160;49.500;7.772;2022-10-14T11:12:27;6.83;;;2.60;;
13793;SDS011;31160;49.500;7.772;2022-10-14T11:15:19;4.07;;;2.50;;
13793;SDS011;31160;49.500;7.772;2022-10-14T11:20:34;4.47;;;2.50;;
13793;SDS011;31160;49.500;7.772;2022-10-14T11:25:51;4.23;;;2.40;;
13793;SDS011;31160;49.500;7.772;2022-10-14T11:31:28;2.90;;;2.20;;
13793;SDS011;31160;49.500;7.772;2022-10-14T11:36:53;10.50;;;3.60;;
13793;SDS011;31160;49.500;7.772;2022-10-14T11:47:52;7.40;;;4.00;;
13793;SDS011;31160;49.500;7.772;2022-10-14T11:50:30;3.10;;;2.60;;
13793;SDS011;31160;49.500;7.772;2022-10-14T11:53:47;3.43;;;2.43;;
13793;SDS011;31160;49.500;7.772;2022-10-14T11:55:58;5.10;;;3.60;;
13793;SDS011;31160;49.500;7.772;2022-10-14T11:58:30;6.00;;;4.20;;
13793;SDS011;31160;49.500;7.772;2022-10-14T12:01:02;2.83;;;2.33;;
13793;SDS011;31160;49.500;7.772;2022-10-14T12:08:55;9.40;;;4.80;;
13793;SDS011;31160;49.500;7.772;2022-10-14T12:11:30;6.30;;;4.07;;
13793;SDS011;31160;49.500;7.772;2022-10-14T12:14:18;6.33;;;3.57;;
13793;SDS011;31160;49.500;7.772;2022-10-14T12:17:00;3.10;;;2.30;;
13793;SDS011;31160;49.500;7.772;2022-10-14T12:19:30;5.33;;;4.03;;
13793;SDS011;31160;49.500;7.772;2022-10-14T12:22:07;2.77;;;2.37;;
13793;SDS011;31160;49.500;7.772;2022-10-14T12:24:47;3.27;;;2.27;;
13793;SDS011;31160;49.500;7.772;2022-10-14T12:27:18;2.90;;;2.13;;
13793;SDS011;31160;49.500;7.772;2022-10-14T12:29:48;3.50;;;2.43;;
13793;SDS011;31160;49.500;7.772;2022-10-14T12:34:55;3.30;;;2.40;;
13793;SDS011;31160;49.500;7.772;2022-10-14T12:42:28;4.27;;;2.17;;
13793;SDS011;31160;49.500;7.772;2022-10-14T12:44:58;4.83;;;2.10;;
13793;SDS011;31160;49.500;7.772;2022-10-14T12:47:31;4.07;;;2.10;;
13793;SDS011;31160;49.500;7.772;2022-10-14T12:50:05;4.60;;;2.20;;
13793;SDS011;31160;49.500;7.772;2022-10-14T12:52:46;2.97;;;2.40;;
13793;SDS011;31160;49.500;7.772;2022-10-14T12:55:21;2.33;;;1.80;;
13793;SDS011;31160;49.500;7.772;2022-10-14T12:57:54;3.17;;;2.30;;
13793;SDS011;31160;49.500;7.772;2022-10-14T13:00:28;11.27;;;6.63;;
13793;SDS011;31160;49.500;7.772;2022-10-14T13:03:15;27.17;;;14.17;;
13793;SDS011;31160;49.500;7.772;2022-10-14T13:05:45;17.83;;;8.10;;
13793;SDS011;31160;49.500;7.772;2022-10-14T13:16:03;2.70;;;1.83;;
13793;SDS011;31160;49.500;7.772;2022-10-14T13:21:09;2.80;;;2.50;;
13793;SDS011;31160;49.500;7.772;2022-10-14T13:23:57;3.67;;;2.50;;
13793;SDS011;31160;49.500;7.772;2022-10-14T13:26:42;6.47;;;2.90;;
13793;SDS011;31160;49.500;7.772;2022-10-14T13:37:55;2.67;;;2.00;;
13793;SDS011;31160;49.500;7.772;2022-10-14T13:40:42;3.23;;;1.90;;
13793;SDS011;31160;49.500;7.772;2022-10-14T13:43:25;5.33;;;2.00;;
13793;SDS011;31160;49.500;7.772;2022-10-14T13:46:07;3.00;;;1.60;;
13793;SDS011;31160;49.500;7.772;2022-10-14T13:48:43;4.83;;;3.83;;
13793;SDS011;31160;49.500;7.772;2022-10-14T13:56:53;12.30;;;4.83;;
13793;SDS011;31160;49.500;7.772;2022-10-14T13:59:57;42.80;;;20.07;;
13793;SDS011;31160;49.500;7.772;2022-10-14T14:02:43;56.27;;;26.10;;
13793;SDS011;31160;49.500;7.772;2022-10-14T14:05:22;6.17;;;1.90;;
13793;SDS011;31160;49.500;7.772;2022-10-14T14:07:51;3.13;;;2.17;;
13793;SDS011;31160;49.500;7.772;2022-10-14T14:10:38;2.00;;;1.37;;
13793;SDS011;31160;49.500;7.772;2022-10-14T14:13:25;2.40;;;1.40;;
13793;SDS011;31160;49.500;7.772;2022-10-14T14:15:54;10.13;;;4.63;;
13793;SDS011;31160;49.500;7.772;2022-10-14T14:18:35;10.77;;;4.67;;
13793;SDS011;31160;49.500;7.772;2022-10-14T14:21:23;3.70;;;1.90;;
13793;SDS011;31160;49.500;7.772;2022-10-14T14:23:53;25.50;;;11.73;;
13793;SDS011;31160;49.500;7.772;2022-10-14T14:26:24;28.47;;;12.73;;
13793;SDS011;31160;49.500;7.772;2022-10-14T14:29:03;9.20;;;5.20;;
13793;SDS011;31160;49.500;7.772;2022-10-14T14:31:32;5.07;;;2.37;;
13793;SDS011;31160;49.500;7.772;2022-10-14T14:34:20;5.90;;;3.50;;
13793;SDS011;31160;49.500;7.772;2022-10-14T14:36:48;13.33;;;6.40;;
13793;SDS011;31160;49.500;7.772;2022-10-14T14:39:24;8.20;;;3.93;;
13793;SDS011;31160;49.500;7.772;2022-10-14T14:41:57;1.60;;;1.47;;
13793;SDS011;31160;49.500;7.772;2022-10-14T14:44:26;2.20;;;1.80;;
13793;SDS011;31160;49.500;7.772;2022-10-14T14:46:57;1.83;;;1.20;;
13793;SDS011;31160;49.500;7.772;2022-10-14T14:49:36;27.10;;;14.60;;
13793;SDS011;31160;49.500;7.772;2022-10-14T14:52:03;37.03;;;17.53;;
13793;SDS011;31160;49.500;7.772;2022-10-14T14:54:31;7.53;;;4.40;;
13793;SDS011;31160;49.500;7.772;2022-10-14T15:01:57;8.70;;;4.00;;
13793;SDS011;31160;49.500;7.772;2022-10-14T15:04:26;11.47;;;5.43;;
13793;SDS011;31160;49.500;7.772;2022-10-14T15:07:07;18.40;;;9.20;;
13793;SDS011;31160;49.500;7.772;2022-10-14T15:09:50;38.70;;;18.03;;
13793;SDS011;31160;49.500;7.772;2022-10-14T15:14:52;20.00;;;7.70;;
13793;SDS011;31160;49.500;7.772;2022-10-14T15:19:56;4.20;;;2.90;;
13793;SDS011;31160;49.500;7.772;2022-10-14T15:30:15;8.40;;;4.63;;
13793;SDS011;31160;49.500;7.772;2022-10-14T15:32:46;5.37;;;3.27;;
13793;SDS011;31160;49.500;7.772;2022-10-14T15:35:14;17.00;;;8.80;;
13793;SDS011;31160;49.500;7.772;2022-10-14T15:37:42;23.93;;;11.33;;
13793;SDS011;31160;49.500;7.772;2022-10-14T15:40:11;11.87;;;6.57;;
13793;SDS011;31160;49.500;7.772;2022-10-14T15:42:44;29.60;;;13.90;;
13793;SDS011;31160;49.500;7.772;2022-10-14T15:45:12;6.90;;;3.93;;
13793;SDS011;31160;49.500;7.772;2022-10-14T15:47:39;8.33;;;3.90;;
13793;SDS011;31160;49.500;7.772;2022-10-14T15:50:12;4.53;;;3.30;;
13793;SDS011;31160;49.500;7.772;2022-10-14T15:52:46;3.93;;;3.53;;
13793;SDS011;31160;49.500;7.772;2022-10-14T15:55:16;4.37;;;3.37;;
13793;SDS011;31160;49.500;7.772;2022-10-14T15:57:45;7.27;;;4.30;;
13793;SDS011;31160;49.500;7.772;2022-10-14T16:00:15;5.07;;;2.37;;
13793;SDS011;31160;49.500;7.772;2022-10-14T16:02:44;7.40;;;5.30;;
13793;SDS011;31160;49.500;7.772;2022-10-14T16:05:12;10.07;;;6.80;;
13793;SDS011;31160;49.500;7.772;2022-10-14T16:07:45;7.07;;;5.63;;
13793;SDS011;31160;49.500;7.772;2022-10-14T16:10:14;7.33;;;5.10;;
13793;SDS011;31160;49.500;7.772;2022-10-14T16:12:43;4.55;;;3.90;;
13793;SDS011;31160;49.500;7.772;2022-10-14T16:17:52;9.83;;;7.00;;
13793;SDS011;31160;49.500;7.772;2022-10-14T16:20:19;4.13;;;3.73;;
13793;SDS011;31160;49.500;7.772;2022-10-14T16:22:46;6.10;;;2.80;;
13793;SDS011;31160;49.500;7.772;2022-10-14T16:25:15;5.20;;;4.03;;
13793;SDS011;31160;49.500;7.772;2022-10-14T16:27:49;4.63;;;3.30;;
13793;SDS011;31160;49.500;7.772;2022-10-14T16:30:16;3.03;;;2.80;;
13793;SDS011;31160;49.500;7.772;2022-10-14T16:32:42;5.67;;;2.83;;
13793;SDS011;31160;49.500;7.772;2022-10-14T16:35:10;4.03;;;2.50;;
13793;SDS011;31160;49.500;7.772;2022-10-14T16:37:37;4.10;;;2.40;;
13793;SDS011;31160;49.500;7.772;2022-10-14T16:40:04;2.57;;;2.10;;
13793;SDS011;31160;49.500;7.772;2022-10-14T16:42:31;2.83;;;2.63;;
13793;SDS011;31160;49.500;7.772;2022-10-14T16:44:58;6.73;;;2.90;;
13793;SDS011;31160;49.500;7.772;2022-10-14T16:47:25;3.50;;;2.90;;
13793;SDS011;31160;49.500;7.772;2022-10-14T16:49:54;6.00;;;3.20;;
13793;SDS011;31160;49.500;7.772;2022-10-14T16:52:22;2.70;;;2.50;;
13793;SDS011;31160;49.500;7.772;2022-10-14T16:54:51;4.53;;;2.60;;
13793;SDS011;31160;49.500;7.772;2022-10-14T16:57:18;2.63;;;2.43;;
13793;SDS011;31160;49.500;7.772;2022-10-14T16:59:44;2.63;;;2.00;;
13793;SDS011;31160;49.500;7.772;2022-10-14T17:02:15;2.00;;;1.80;;
13793;SDS011;31160;49.500;7.772;2022-10-14T17:04:42;2.27;;;1.97;;
13793;SDS011;31160;49.500;7.772;2022-10-14T17:07:11;2.33;;;2.13;;
13793;SDS011;31160;49.500;7.772;2022-10-14T17:09:39;2.40;;;2.20;;
13793;SDS011;31160;49.500;7.772;2022-10-14T17:12:06;2.93;;;2.10;;
13793;SDS011;31160;49.500;7.772;2022-10-14T17:14:39;3.13;;;2.40;;
13793;SDS011;31160;49.500;7.772;2022-10-14T17:17:06;3.73;;;3.30;;
13793;SDS011;31160;49.500;7.772;2022-10-14T17:19:33;2.57;;;2.17;;